In Rescue
 
Open Full Screen Window  High Contrast Mode
Wind Gusting 00 knots
07
October 25, 2021 3:32 PM CDT
Weather Information
Wind Direction
  110 °
Wind Speed
  07 kt (8 mph)
Wind Gust
  00 kt (0 mph)
Variable Wind
100°
160°
Altimeter
30.15 in
Visibility
10 SM
Temperature
10° C
50° F
Dewpoint
00° C
32° F
Humidity
50%
1hr Rain Fall
00.00 in.
24hr Rain Fall
00.00 in.
Sky Condition
Overcast @ 3,600 ft
VFR

METAR KAIT 252032Z AUTO 11007KT 100V160 10SM OVC036 10/00 A3015 RMK AO2

FAA Disclaimer: The data displayed is for advisory purposes only and is not to be used for flight planning or operations.